Leadville, CO

8:09 AM MST on February 24, 2017 (GMT -0700)
Homestake | | Change Station

Elev 10180 ft 39.26 °N, 106.30 °W | Updated 7 seconds ago

Overcast
Overcast
7.3 °F
Feels Like 7 °F
N
0.9
Wind Variable Wind from North
Gusts 2.5 mph

Today
High -- | Low -- °F
--% Chance of Precip.
Yesterday
High -- | Low -- °F
Precip. -- in
Pressure 29.81 in
Visibility 10.0 miles
Clouds Overcast 6000 ft
Windchill 7 °F
Dew Point -6 °F
Humidity 54%
Rainfall 0.00 in
Snow Depth Not available.
6:44 AM 5:52 PM
Waning Crescent, 5% visible
METAR KLXV 241453Z AUTO 33005KT 10SM OVC060 M14/M18 A2968 RMK AO2 SLP093 60000 T11441178 53012
Pressure 29.81 in
Visibility 10.0 miles
Clouds Overcast 6000 ft
Windchill 7 °F
Dew Point -6 °F
Humidity 54%
Rainfall 0.00 in
Snow Depth Not available.
6:44 AM 5:52 PM
Waning Crescent, 5% visible
METAR KLXV 241453Z AUTO 33005KT 10SM OVC060 M14/M18 A2968 RMK AO2 SLP093 60000 T11441178 53012

Get Your Daily Forecast Email!

Thanks for signing up!

Be on the lookout for a verification email in your inbox.

You'll start receiving the daily forecast at 8 AM.

×

10-Day Weather Forecast

Almanac

Astronomy

Feb. 24, 2017 Rise Set
Actual Time
Civil Twilight
Nautical Twilight
Astronomical Twilight
Moon
Length of Visible Light
Length of Day
Tomorrow will be .
, % of the Moon is Illuminated

Today's Extremes

State Highs State Lows

Community

WunderPhotos

Upload Photos

1,962,540 photos uploaded!

WunderBlog® & News

Nearby

Air Quality

  Air Quality AQ Index Pollutant
Not available.

Snow Depth

Station Depth Elevation

Earthquake Activity

City Distance Mag. Time & Date
Minimum magnitude displayed is 2.5.

Coastal Water Temperatures

Place Temperature

Stations

Nearby Weather Stations

Station Location Temp. Windchill Dew Point Humidity Wind Precip. Elev Updated Type
                   

Watches & Warnings

There are currently no watches in effect.